Terminal Aerodrome Forecast
Issued by NWS Pocatello, ID

Home | Current Version | Previous Version | Text Only | Print | Product List | Glossary On
Versions: 1 2 3 4 5 6 7 8 9 10 11 12 13
647
FTUS45 KPIH 302320
TAFIDA
TAF
KIDA 302320Z 0100/0124 18008KT P6SM FEW030
     FM010300 36006KT P6SM FEW040
     FM011000 16010KT P6SM VCSH FEW060 BKN090
     FM011800 22015G25KT P6SM VCTS FEW060CB BKN090
     FM012100 25010KT P6SM SCT080=

USA.gov is the U.S. government's official web portal to all federal, state and local government web resources and services.